createdAt,value
2019-01-19T06:09:40.638Z,38.50
2019-01-19T06:12:09.352Z,37.30
2019-01-19T06:14:38.644Z,37.80
2019-01-19T06:17:07.402Z,37.90
2019-01-19T06:19:36.302Z,38.00
2019-01-19T06:22:05.211Z,38.10
2019-01-19T06:24:34.207Z,38.00
2019-01-19T06:27:03.013Z,38.00
2019-01-19T06:29:31.928Z,38.00
2019-01-19T06:32:01.327Z,38.10
2019-01-19T06:34:31.401Z,38.00
2019-01-19T06:37:00.241Z,38.00
2019-01-19T06:39:28.997Z,37.90
2019-01-19T06:41:59.298Z,37.80
2019-01-19T06:44:28.149Z,37.80
2019-01-19T06:46:56.923Z,37.70
2019-01-19T06:49:26.633Z,37.70
2019-01-19T06:51:55.760Z,37.70
2019-01-19T06:54:25.675Z,37.60
2019-01-19T06:56:54.419Z,37.60
2019-01-19T06:59:23.253Z,37.90
2019-01-19T07:01:51.987Z,37.50
2019-01-19T07:04:20.776Z,38.20
2019-01-19T07:06:49.264Z,37.50
2019-01-19T07:09:18.151Z,37.50
2019-01-19T07:11:47.132Z,37.40
2019-01-19T07:14:17.076Z,37.40
2019-01-19T07:16:45.950Z,37.40
2019-01-19T07:19:16.109Z,37.30
2019-01-19T07:21:45.671Z,37.30
2019-01-19T07:24:14.812Z,37.90
2019-01-19T07:26:43.521Z,37.30
2019-01-19T07:29:12.293Z,37.30
2019-01-19T07:31:41.463Z,37.20
2019-01-19T07:34:10.921Z,37.20
2019-01-19T07:36:40.109Z,37.20
2019-01-19T07:39:09.543Z,37.20
2019-01-19T07:41:38.781Z,37.10
2019-01-19T07:44:08.219Z,37.00
2019-01-19T07:46:37.447Z,37.10
2019-01-19T07:51:35.129Z,37.00
2019-01-19T07:54:04.024Z,37.00
2019-01-19T07:56:33.024Z,37.00
2019-01-19T07:59:02.443Z,36.90
2019-01-19T08:01:31.600Z,36.90
2019-01-19T08:04:00.663Z,36.90
2019-01-19T08:06:30.619Z,36.90
2019-01-19T08:08:59.497Z,36.90
2019-01-19T08:11:28.661Z,36.90
2019-01-19T08:13:58.103Z,36.90
2019-01-19T08:16:27.206Z,36.90
2019-01-19T08:18:56.676Z,36.90
2019-01-19T08:21:26.144Z,36.90
2019-01-19T08:23:55.189Z,37.60
2019-01-19T08:26:24.693Z,36.80
2019-01-19T08:28:53.837Z,36.90
2019-01-19T08:31:22.928Z,36.80
2019-01-19T08:33:52.152Z,36.80
2019-01-19T08:36:21.857Z,36.80
2019-01-19T08:38:51.691Z,36.80
2019-01-19T08:41:20.831Z,36.80
2019-01-19T08:43:54.256Z,36.80
2019-01-19T08:46:23.843Z,36.80
2019-01-19T08:48:52.980Z,36.80
2019-01-19T08:51:22.541Z,36.80
2019-01-19T08:53:51.305Z,36.80
2019-01-19T08:56:20.543Z,36.80
2019-01-19T08:58:49.761Z,36.80
2019-01-19T09:01:18.911Z,36.80
2019-01-19T09:03:47.967Z,36.80
2019-01-19T09:06:17.143Z,36.80
2019-01-19T09:08:46.147Z,36.80
2019-01-19T09:11:15.290Z,36.80
2019-01-19T09:13:44.501Z,36.80
2019-01-19T09:16:16.651Z,36.80
2019-01-19T09:18:46.154Z,36.80
2019-01-19T09:21:15.240Z,36.70
2019-01-19T09:23:58.456Z,36.70
2019-01-19T09:26:27.824Z,36.70
2019-01-19T09:28:57.362Z,36.80
2019-01-19T09:31:26.715Z,36.80
2019-01-19T09:33:55.868Z,36.80
2019-01-19T09:36:25.295Z,36.80
2019-01-19T09:38:54.484Z,36.70
2019-01-19T09:41:23.980Z,36.70
2019-01-19T09:43:53.572Z,36.70
2019-01-19T09:46:22.632Z,36.70
2019-01-19T09:48:51.986Z,36.70
2019-01-19T09:51:21.195Z,36.70
2019-01-19T09:53:50.609Z,36.80
2019-01-19T09:56:20.074Z,36.70
2019-01-19T09:58:49.273Z,36.70
2019-01-19T10:01:18.335Z,36.80
2019-01-19T10:03:47.387Z,36.80
2019-01-19T10:06:16.693Z,36.80
2019-01-19T10:08:45.851Z,36.70
2019-01-19T10:11:15.036Z,36.80
2019-01-19T10:13:44.069Z,36.80
2019-01-19T10:16:13.287Z,36.80
2019-01-19T10:18:42.149Z,37.50
2019-01-19T10:21:11.694Z,36.80
2019-01-19T10:23:40.728Z,36.80
2019-01-19T10:26:09.792Z,36.80
2019-01-19T10:28:39.277Z,36.90
2019-01-19T10:31:08.649Z,36.80
2019-01-19T10:33:38.089Z,36.90
2019-01-19T10:36:07.230Z,36.90
2019-01-19T10:38:36.239Z,36.90
2019-01-19T10:41:05.659Z,37.50
2019-01-19T10:43:34.843Z,36.90
2019-01-19T10:46:04.029Z,36.90
2019-01-19T10:48:33.207Z,37.10
2019-01-19T10:51:02.313Z,37.00
2019-01-19T10:53:31.487Z,36.90
2019-01-19T10:56:00.542Z,36.80
2019-01-19T10:58:29.741Z,36.70
2019-01-19T11:00:59.303Z,36.80
2019-01-19T11:03:28.370Z,36.80
2019-01-19T11:05:57.512Z,36.80
2019-01-19T11:08:26.611Z,36.90
2019-01-19T11:10:55.591Z,36.90
2019-01-19T11:13:24.644Z,36.80
2019-01-19T11:15:54.065Z,36.70
2019-01-19T11:18:23.669Z,36.70
2019-01-19T11:20:52.739Z,36.70
2019-01-19T11:23:22.151Z,36.70
2019-01-19T11:25:51.292Z,36.60
2019-01-19T11:28:20.382Z,36.70
2019-01-19T11:30:49.958Z,36.60
2019-01-19T11:33:19.106Z,37.10
2019-01-19T11:35:48.418Z,36.60
2019-01-19T11:38:20.170Z,36.60
2019-01-19T11:40:46.604Z,36.60
2019-01-19T11:43:15.486Z,36.70
2019-01-19T11:45:44.623Z,36.50
2019-01-19T11:48:13.752Z,36.40
2019-01-19T11:50:43.229Z,36.30
2019-01-19T11:53:12.549Z,36.40
2019-01-19T11:55:41.585Z,36.40
2019-01-19T11:58:11.099Z,36.30
2019-01-19T12:00:40.444Z,36.40
2019-01-19T12:03:10.016Z,36.30
2019-01-19T12:05:40.352Z,36.30
2019-01-19T12:08:10.643Z,36.50
2019-01-19T12:10:39.868Z,36.80
2019-01-19T12:13:09.431Z,36.70
2019-01-19T12:15:38.606Z,36.40
2019-01-19T12:18:07.388Z,36.30
2019-01-19T12:20:40.455Z,36.30
2019-01-19T12:23:10.000Z,36.60
2019-01-19T12:25:39.406Z,36.40
2019-01-19T12:28:08.514Z,36.50
2019-01-19T12:30:38.284Z,36.50
2019-01-19T12:33:07.076Z,36.30
2019-01-19T12:35:36.219Z,36.20
2019-01-19T12:38:05.311Z,36.20
2019-01-19T12:40:34.799Z,36.20
2019-01-19T12:43:07.048Z,36.30
2019-01-19T12:45:39.775Z,36.30
2019-01-19T12:48:09.308Z,36.30
2019-01-19T12:50:38.302Z,36.20
2019-01-19T12:53:07.559Z,36.10
2019-01-19T12:55:36.736Z,36.20
2019-01-19T12:58:07.247Z,36.60
2019-01-19T13:00:36.745Z,36.40
2019-01-19T13:03:06.002Z,36.20
2019-01-19T13:05:44.706Z,36.20
2019-01-19T13:08:16.109Z,36.00
2019-01-19T13:10:57.162Z,36.00
2019-01-19T13:13:31.510Z,36.20
2019-01-19T13:18:19.124Z,36.60
2019-01-19T13:21:00.693Z,36.20
2019-01-19T13:23:45.094Z,36.30
2019-01-19T13:27:19.941Z,36.30
2019-01-19T13:29:59.927Z,36.20
2019-01-19T13:32:56.755Z,36.50
2019-01-19T13:37:44.807Z,36.30
2019-01-19T13:40:26.809Z,36.40
2019-01-19T13:43:12.563Z,36.40
2019-01-19T13:45:55.282Z,36.30
2019-01-19T13:49:07.560Z,36.30
2019-01-19T13:54:40.639Z,36.40
2019-01-19T13:57:22.823Z,36.30
2019-01-19T14:00:01.472Z,36.40
2019-01-19T14:05:26.632Z,36.40
2019-01-19T14:08:07.637Z,36.20
2019-01-19T14:11:22.667Z,36.40
2019-01-19T14:14:10.417Z,36.40
2019-01-19T14:17:08.964Z,36.30
2019-01-19T14:20:05.161Z,36.40
2019-01-19T14:22:44.566Z,36.50
2019-01-19T14:26:38.204Z,36.50
2019-01-19T14:29:25.548Z,36.40
2019-01-19T14:32:24.704Z,36.60
2019-01-19T14:36:02.644Z,36.50
2019-01-19T14:38:56.851Z,36.40
2019-01-19T14:41:39.982Z,37.10
2019-01-19T14:45:20.063Z,36.60
2019-01-19T14:48:14.443Z,36.50
2019-01-19T14:51:55.243Z,36.70
2019-01-19T14:55:07.701Z,36.60
2019-01-19T14:57:51.331Z,36.50
2019-01-19T15:00:33.356Z,36.40
2019-01-19T15:03:10.932Z,36.50
2019-01-19T15:05:56.784Z,37.10
2019-01-19T15:08:39.496Z,36.50
2019-01-19T15:11:34.935Z,36.60
2019-01-19T15:14:18.955Z,36.40
2019-01-19T15:17:12.990Z,36.50
2019-01-19T15:20:04.545Z,36.50
2019-01-19T15:22:43.037Z,36.60
2019-01-19T15:25:36.090Z,36.50
2019-01-19T15:28:20.904Z,36.50
2019-01-19T15:31:05.899Z,36.50
2019-01-19T15:33:47.418Z,36.70
2019-01-19T15:36:27.427Z,36.70
2019-01-19T15:39:21.860Z,36.70
2019-01-19T15:42:33.334Z,36.60
2019-01-19T15:45:31.061Z,36.60
2019-01-19T15:48:23.623Z,36.70
2019-01-19T15:52:21.410Z,36.60
2019-01-19T15:56:05.211Z,36.60
2019-01-19T15:58:49.272Z,36.60
2019-01-19T16:01:35.570Z,36.60
2019-01-19T16:04:40.443Z,36.70
2019-01-19T16:07:25.667Z,36.60
2019-01-19T16:14:44.400Z,36.80
2019-01-19T16:17:27.575Z,36.50
2019-01-19T16:22:41.007Z,36.60
2019-01-19T16:26:36.955Z,36.60
2019-01-19T16:31:19.772Z,36.50
2019-01-19T16:34:00.031Z,36.50
2019-01-19T16:37:08.582Z,36.50
2019-01-19T16:40:55.385Z,36.40
2019-01-19T16:43:44.365Z,36.40
2019-01-19T16:47:25.965Z,36.40
2019-01-19T16:50:09.955Z,36.30
2019-01-19T16:52:46.794Z,36.40
2019-01-19T16:55:32.364Z,36.30
2019-01-19T17:02:21.776Z,36.30
2019-01-19T17:07:10.362Z,36.30
2019-01-19T17:09:50.904Z,36.30
2019-01-19T17:12:44.843Z,36.30
2019-01-19T17:16:22.652Z,36.30
2019-01-19T17:19:05.163Z,36.30
2019-01-19T17:21:56.166Z,36.30
2019-01-19T17:25:10.947Z,36.20
2019-01-19T17:28:07.817Z,36.20
2019-01-19T17:31:02.268Z,36.20
2019-01-19T17:34:41.612Z,36.10
2019-01-19T17:37:20.391Z,36.10
2019-01-19T17:40:32.220Z,36.20
2019-01-19T17:43:19.120Z,36.10
2019-01-19T17:46:36.031Z,36.10
2019-01-19T17:49:49.664Z,36.00
2019-01-19T17:55:06.456Z,36.00
2019-01-19T17:57:47.696Z,35.90
2019-01-19T18:00:30.183Z,35.90
2019-01-19T18:03:18.037Z,35.90
2019-01-19T18:06:10.211Z,35.90
2019-01-19T18:10:05.823Z,35.90
2019-01-19T18:12:50.676Z,35.90
2019-01-19T18:15:30.745Z,35.90
2019-01-19T18:18:46.761Z,35.90
2019-01-19T18:24:02.649Z,35.90
2019-01-19T18:26:40.909Z,36.50
2019-01-19T18:29:28.973Z,35.80
2019-01-19T18:32:06.397Z,35.80
2019-01-19T18:35:17.348Z,35.80
2019-01-19T18:37:57.659Z,35.70
2019-01-19T18:40:46.436Z,35.70
2019-01-19T18:43:34.017Z,35.80
2019-01-19T18:46:15.378Z,35.80
2019-01-19T18:49:22.045Z,35.70
2019-01-19T18:52:07.928Z,35.60
2019-01-19T18:54:48.311Z,35.70
2019-01-19T18:58:32.107Z,35.60
2019-01-19T19:01:11.490Z,35.60
2019-01-19T19:04:28.597Z,35.50
2019-01-19T19:07:08.637Z,35.50
2019-01-19T19:09:52.792Z,35.50
2019-01-19T19:12:53.131Z,35.40
2019-01-19T19:15:42.523Z,35.40
2019-01-19T19:18:56.672Z,35.40
2019-01-19T19:21:35.419Z,35.40
2019-01-19T19:24:28.089Z,35.40
2019-01-19T19:28:11.926Z,35.40
2019-01-19T19:31:50.425Z,35.30
2019-01-19T19:34:39.256Z,35.30
2019-01-19T19:37:23.444Z,35.30
2019-01-19T19:40:18.125Z,35.30
2019-01-19T19:43:13.672Z,35.20
2019-01-19T19:46:01.619Z,35.30
2019-01-19T19:48:47.909Z,35.30
2019-01-19T19:51:31.295Z,35.30
2019-01-19T19:54:00.320Z,35.30
2019-01-19T19:56:27.827Z,35.30
2019-01-19T19:58:56.664Z,35.30
2019-01-19T20:01:25.893Z,35.30
2019-01-19T20:03:54.938Z,35.30
2019-01-19T20:06:24.370Z,35.30
2019-01-19T20:08:53.485Z,35.30
2019-01-19T20:11:23.020Z,35.30
2019-01-19T20:13:52.580Z,36.10
2019-01-19T20:16:21.627Z,35.20
2019-01-19T20:18:50.801Z,35.20
2019-01-19T20:21:20.284Z,35.50
2019-01-19T20:23:49.737Z,35.40
2019-01-19T20:26:18.692Z,35.40
2019-01-19T20:31:16.772Z,35.90
2019-01-19T20:36:15.140Z,36.00
2019-01-19T20:38:44.368Z,36.10
2019-01-19T20:41:13.488Z,36.10
2019-01-19T20:43:42.911Z,36.00
2019-01-19T20:46:12.175Z,36.00
2019-01-19T20:48:41.833Z,35.90
2019-01-19T20:51:10.561Z,35.70
2019-01-19T20:53:39.383Z,35.60
2019-01-19T20:56:08.579Z,35.40
2019-01-19T20:58:37.821Z,35.20
2019-01-19T21:01:07.064Z,35.10
2019-01-19T21:03:35.956Z,35.10
2019-01-19T21:06:04.760Z,34.90
2019-01-19T21:08:33.907Z,34.80
2019-01-19T21:11:02.744Z,34.60
2019-01-19T21:13:31.987Z,34.70
2019-01-19T21:16:01.080Z,34.50
2019-01-19T21:18:29.831Z,34.40
2019-01-19T21:20:59.251Z,34.30
2019-01-19T21:23:28.475Z,34.30
2019-01-19T21:25:57.608Z,34.10
2019-01-19T21:28:27.025Z,34.20
2019-01-19T21:30:56.548Z,34.10
2019-01-19T21:33:25.271Z,33.90
2019-01-19T21:35:54.456Z,33.90
2019-01-19T21:38:23.950Z,33.70
2019-01-19T21:40:52.686Z,33.70
2019-01-19T21:43:21.903Z,33.60
2019-01-19T21:45:51.490Z,33.60
2019-01-19T21:48:20.600Z,33.50
2019-01-19T21:50:49.825Z,33.40
2019-01-19T21:53:18.913Z,33.30
2019-01-19T21:55:48.440Z,33.30
